Time;durP1;ratioP1;P1;durP2;ratioP2;P2;SDS_P1;SDS_P2;PMS_P1;PMS_P2;Temp;Humidity;BMP_temperature;BMP_pressure;BME280_temperature;BME280_humidity;BME280_pressure;Samples;Min_cycle;Max_cycle;Signal;HPM_P1;HPM_P2
2022/04/21 00:01:20;;;;;;;23.27;15.28;;;;;;;4.30;100.00;99344.32;1661256;86;21140;-70
2022/04/21 00:03:47;;;;;;;20.65;14.70;;;;;;;4.31;100.00;99336.93;1661411;86;21041;-70
2022/04/21 00:06:16;;;;;;;23.22;15.35;;;;;;;4.32;100.00;99339.48;1661181;86;21131;-71
2022/04/21 00:08:43;;;;;;;22.13;15.10;;;;;;;4.31;100.00;99341.69;1661368;86;21060;-70
2022/04/21 00:11:12;;;;;;;25.95;16.00;;;;;;;4.33;100.00;99334.69;1661199;86;21083;-71
2022/04/21 00:13:40;;;;;;;25.43;15.78;;;;;;;4.29;100.00;99335.65;1661186;86;22268;-69
2022/04/21 00:16:07;;;;;;;26.55;16.90;;;;;;;4.32;100.00;99338.17;1661110;86;21555;-72
2022/04/21 00:18:35;;;;;;;21.82;15.13;;;;;;;4.32;100.00;99339.48;1661185;86;21100;-68
2022/04/21 00:21:02;;;;;;;26.50;15.35;;;;;;;4.33;100.00;99335.99;1661099;86;21673;-70
2022/04/21 00:23:31;;;;;;;26.77;15.85;;;;;;;4.33;100.00;99333.84;1662993;85;21138;-69
2022/04/21 00:26:00;;;;;;;23.45;16.42;;;;;;;4.35;100.00;99334.66;1687619;85;21297;-69
2022/04/21 00:28:31;;;;;;;;;;;;;;;4.37;100.00;99337.64;1690448;85;21388;-71
2022/04/21 00:30:58;;;;;;;20.43;13.62;;;;;;;4.36;100.00;99330.70;1656745;86;20198;-71
2022/04/21 00:33:25;;;;;;;20.17;13.80;;;;;;;4.37;100.00;99339.36;1687643;85;21083;-70
2022/04/21 00:35:52;;;;;;;25.62;15.90;;;;;;;4.41;100.00;99336.64;1673080;85;21678;-70
2022/04/21 00:38:21;;;;;;;23.98;15.55;;;;;;;4.39;100.00;99339.77;1687423;85;21126;-70
2022/04/21 00:40:50;;;;;;;22.93;14.47;;;;;;;4.38;100.00;99327.61;1687805;85;21493;-71
2022/04/21 00:43:19;;;;;;;21.77;15.45;;;;;;;4.37;100.00;99329.82;1687663;85;21107;-70
2022/04/21 00:45:47;;;;;;;24.30;15.05;;;;;;;4.37;100.00;99328.52;1687861;84;21515;-70
2022/04/21 00:48:14;;;;;;;21.55;15.15;;;;;;;4.33;100.00;99329.48;1666036;85;21574;-70
2022/04/21 00:50:42;;;;;;;24.65;15.28;;;;;;;4.32;100.00;99325.14;1687621;85;21643;-70
2022/04/21 00:53:10;;;;;;;23.67;15.25;;;;;;;4.32;100.00;99321.23;1686870;85;21086;-69
2022/04/21 00:55:39;;;;;;;21.02;15.32;;;;;;;4.31;100.00;99318.23;1687692;85;21054;-70
2022/04/21 00:58:06;;;;;;;22.23;15.47;;;;;;;4.33;100.00;99316.90;1687716;85;21118;-71
2022/04/21 01:00:36;;;;;;;20.30;13.83;;;;;;;4.32;100.00;99312.11;1687641;85;21067;-70
2022/04/21 01:03:05;;;;;;;24.18;14.98;;;;;;;4.33;100.00;99317.75;1687579;85;21855;-71
2022/04/21 01:05:33;;;;;;;19.70;14.07;;;;;;;4.32;100.00;99308.20;1687955;85;21114;-70
2022/04/21 01:08:06;;;;;;;21.52;14.60;;;;;;;4.33;100.00;99304.71;1687512;85;21060;-70
2022/04/21 01:10:36;;;;;;;23.92;15.00;;;;;;;4.36;100.00;99308.54;1701606;84;21070;-70
2022/04/21 01:13:08;;;;;;;24.10;14.90;;;;;;;4.33;100.00;99307.32;1716301;83;21063;-70
2022/04/21 01:15:36;;;;;;;22.07;14.63;;;;;;;4.33;100.00;99306.02;1716483;83;21202;-69
2022/04/21 01:18:05;;;;;;;19.02;13.70;;;;;;;4.33;100.00;99306.02;1716319;83;21024;-69
2022/04/21 01:20:33;;;;;;;20.02;14.33;;;;;;;4.35;100.00;99308.14;1716600;83;21089;-70
2022/04/21 01:23:00;;;;;;;19.20;13.35;;;;;;;4.36;100.00;99302.02;1716442;83;21055;-69
2022/04/21 01:25:37;;;;;;;22.25;14.93;;;;;;;4.40;100.00;99304.97;1708431;83;21126;-70
2022/04/21 01:28:05;;;;;;;24.40;14.70;;;;;;;4.40;100.00;99304.97;1706409;84;21129;-70
2022/04/21 01:30:31;;;;;;;22.73;15.23;;;;;;;4.43;100.00;99304.03;1706551;83;21337;-70
2022/04/21 01:33:00;;;;;;;23.67;14.40;;;;;;;4.46;100.00;99308.30;1706441;83;21039;-70
2022/04/21 01:35:26;;;;;;;21.97;14.70;;;;;;;4.49;100.00;99297.37;1706557;83;21051;-70
2022/04/21 01:43:26;;;;;;;21.12;14.20;;;;;;;4.35;100.00;99298.17;1706253;84;21040;-70
2022/04/21 01:45:54;;;;;;;21.65;15.15;;;;;;;4.29;100.00;99295.70;1706772;84;21036;-70
2022/04/21 01:48:22;;;;;;;23.38;15.70;;;;;;;4.26;100.00;99294.03;1706398;84;21084;-70
2022/04/21 01:50:49;;;;;;;23.45;14.98;;;;;;;4.25;100.00;99297.97;1706184;84;21110;-70
2022/04/21 01:53:15;;;;;;;22.77;15.58;;;;;;;4.22;100.00;99295.00;1706318;84;21237;-71
2022/04/21 01:55:42;;;;;;;26.23;15.45;;;;;;;4.24;100.00;99291.91;1706480;84;21091;-70
2022/04/21 01:58:08;;;;;;;24.60;16.02;;;;;;;4.23;100.00;99294.09;1706066;83;21075;-70
2022/04/21 02:00:36;;;;;;;20.68;14.78;;;;;;;4.20;100.00;99286.36;1706326;83;21071;-70
2022/04/21 02:03:04;;;;;;;25.88;16.25;;;;;;;4.20;100.00;99288.96;1706163;84;21083;-69
2022/04/21 02:05:33;;;;;;;24.98;16.20;;;;;;;4.18;100.00;99285.53;1705937;83;22086;-71
2022/04/21 02:08:00;;;;;;;24.95;17.85;;;;;;;4.19;100.00;99289.87;1705736;83;21094;-70
2022/04/21 02:10:28;;;;;;;26.85;17.98;;;;;;;4.16;100.00;99289.50;1706115;83;21087;-69
2022/04/21 02:12:54;;;;;;;24.10;14.53;;;;;;;4.16;100.00;99289.92;1706170;84;21077;-70
2022/04/21 02:15:23;;;;;;;24.05;16.45;;;;;;;4.15;100.00;99285.62;1706333;84;21062;-71
2022/04/21 02:17:50;;;;;;;26.45;17.10;;;;;;;4.12;100.00;99283.95;1706595;84;21164;-70
2022/04/21 02:20:18;;;;;;;25.95;16.87;;;;;;;4.13;100.00;99299.13;1706422;84;21639;-69
2022/04/21 02:22:46;;;;;;;22.13;14.80;;;;;;;4.13;100.00;99290.86;1706313;84;21016;-69
2022/04/21 02:25:15;;;;;;;21.35;14.85;;;;;;;4.11;100.00;99297.00;1704591;83;21555;-71
2022/04/21 02:28:47;;;;;;;23.77;15.93;;;;;;;4.10;100.00;99290.09;1796357;79;26049;-69
2022/04/21 02:31:15;;;;;;;27.67;16.52;;;;;;;4.03;100.00;99293.74;1756283;81;20979;-70
2022/04/21 02:33:43;;;;;;;22.42;14.90;;;;;;;3.99;100.00;99288.58;1756491;81;21133;-70
2022/04/21 02:36:11;;;;;;;23.83;15.70;;;;;;;3.99;100.00;99283.38;1756147;81;22231;-70
2022/04/21 02:38:38;;;;;;;26.75;16.87;;;;;;;4.00;100.00;99286.83;1756423;81;21023;-70
2022/04/21 02:41:08;;;;;;;28.02;17.50;;;;;;;4.10;100.00;99287.48;1756229;81;20976;-68
2022/04/21 02:43:34;;;;;;;25.75;15.78;;;;;;;4.07;100.00;99285.81;1756466;81;21543;-70
2022/04/21 02:46:03;;;;;;;24.87;15.60;;;;;;;4.11;100.00;99286.58;1756352;81;21092;-70
2022/04/21 02:48:31;;;;;;;23.65;15.10;;;;;;;4.12;100.00;99287.00;1756562;81;21067;-71
2022/04/21 02:50:58;;;;;;;24.18;16.62;;;;;;;4.11;100.00;99291.79;1756563;81;21071;-70
2022/04/21 02:59:00;;;;;;;23.27;15.40;;;;;;;4.11;100.00;99290.48;1726387;83;21415;-70
2022/04/21 03:01:28;;;;;;;28.83;17.32;;;;;;;4.12;100.00;99283.09;1690348;83;21065;-71
2022/04/21 03:03:54;;;;;;;23.65;15.30;;;;;;;4.09;100.00;99290.52;1726803;83;21050;-71
2022/04/21 03:06:22;;;;;;;21.37;14.73;;;;;;;4.04;100.00;99288.47;1726361;83;21566;-71
2022/04/21 03:08:49;;;;;;;20.95;14.38;;;;;;;3.97;100.00;99291.66;1726594;83;21086;-70
2022/04/21 03:11:17;;;;;;;18.25;13.65;;;;;;;3.91;100.00;99291.83;1726106;83;21516;-70
2022/04/21 03:13:45;;;;;;;22.10;15.05;;;;;;;3.81;100.00;99286.41;1726456;83;21036;-70
2022/04/21 03:16:13;;;;;;;21.90;14.10;;;;;;;3.76;100.00;99293.02;1725731;82;21082;-69
2022/04/21 03:18:39;;;;;;;21.97;14.73;;;;;;;3.70;100.00;99289.70;1726597;83;21087;-69
2022/04/21 03:26:37;;;;;;;23.83;14.63;;;;;;;3.51;100.00;99298.36;1726042;83;21050;-69
2022/04/21 03:29:05;;;;;;;22.50;14.60;;;;;;;3.46;100.00;99302.37;1713516;82;21608;-69
2022/04/21 03:31:32;;;;;;;25.45;16.42;;;;;;;3.41;100.00;99304.22;1713538;82;21039;-71
2022/04/21 03:33:58;;;;;;;21.97;15.65;;;;;;;3.39;100.00;99304.69;1713470;83;21062;-69
2022/04/21 03:36:25;;;;;;;20.92;13.90;;;;;;;3.37;100.00;99303.86;1713556;83;21933;-69
2022/04/21 03:38:53;;;;;;;23.25;15.03;;;;;;;3.35;100.00;99304.34;1713295;83;21415;-69
2022/04/21 03:41:22;;;;;;;20.50;14.33;;;;;;;3.37;100.00;99318.17;1712984;83;21045;-70
2022/04/21 03:43:48;;;;;;;21.27;15.45;;;;;;;3.35;100.00;99313.45;1713241;83;21064;-70
2022/04/21 03:46:17;;;;;;;19.30;13.35;;;;;;;3.36;100.00;99318.62;1713162;83;21589;-70
2022/04/21 03:48:43;;;;;;;23.27;15.08;;;;;;;3.39;100.00;99313.80;1713053;83;21837;-69
2022/04/21 03:51:11;;;;;;;19.90;14.18;;;;;;;3.37;100.00;99311.67;1712904;83;22068;-71
2022/04/21 03:53:40;;;;;;;20.52;14.30;;;;;;;3.39;100.00;99315.10;1712882;82;21158;-70
2022/04/21 03:56:09;;;;;;;19.33;14.00;;;;;;;3.41;100.00;99310.73;1713167;83;21575;-71
2022/04/21 03:58:36;;;;;;;18.25;13.70;;;;;;;3.41;100.00;99310.73;1712977;83;21059;-69
2022/04/21 04:01:03;;;;;;;20.72;13.70;;;;;;;3.39;100.00;99317.70;1713354;83;21166;-70
2022/04/21 04:03:30;;;;;;;18.07;13.03;;;;;;;3.36;100.00;99306.92;1712786;83;21543;-70
2022/04/21 04:05:58;;;;;;;19.40;13.38;;;;;;;3.35;100.00;99308.23;1713053;83;21131;-71
2022/04/21 04:11:10;;;;;;;20.15;13.85;;;;;;;3.40;100.00;99318.55;1713183;83;21189;-72
2022/04/21 04:13:37;;;;;;;20.95;13.03;;;;;;;3.40;100.00;99319.41;1713268;83;21258;-71
2022/04/21 04:16:05;;;;;;;22.52;13.43;;;;;;;3.43;100.00;99315.45;1713163;83;21094;-69
2022/04/21 04:18:32;;;;;;;23.50;15.20;;;;;;;3.44;100.00;99327.57;1712952;83;21039;-70
2022/04/21 04:20:58;;;;;;;17.60;13.32;;;;;;;3.45;100.00;99320.19;1713200;82;21071;-71
2022/04/21 04:23:25;;;;;;;20.45;15.23;;;;;;;3.49;100.00;99326.17;1713023;83;21587;-69
2022/04/21 04:25:52;;;;;;;20.08;13.68;;;;;;;3.52;100.00;99323.08;1713047;83;21147;-70
2022/04/21 04:28:20;;;;;;;17.87;13.08;;;;;;;3.60;100.00;99331.16;1717031;82;21523;-71
2022/04/21 04:30:46;;;;;;;20.52;13.62;;;;;;;3.63;100.00;99325.88;1720898;83;21062;-70
2022/04/21 04:33:14;;;;;;;17.90;13.10;;;;;;;3.71;100.00;99326.58;1720609;83;21023;-69
2022/04/21 04:35:42;;;;;;;18.17;12.73;;;;;;;3.78;100.00;99325.55;1720777;82;22237;-71
2022/04/21 04:38:08;;;;;;;17.70;12.28;;;;;;;3.87;100.00;99320.59;1720766;83;21143;-70
2022/04/21 04:40:36;;;;;;;17.52;12.43;;;;;;;3.88;100.00;99324.44;1720936;82;21054;-71
2022/04/21 04:43:03;;;;;;;19.35;12.30;;;;;;;3.93;100.00;99322.61;1720593;83;21102;-71
2022/04/21 04:48:15;;;;;;;17.32;12.13;;;;;;;4.08;100.00;99324.45;1720754;83;21082;-70
2022/04/21 04:50:42;;;;;;;17.25;11.80;;;;;;;4.11;100.00;99318.70;1720848;83;21086;-70
2022/04/21 04:53:10;;;;;;;15.58;11.30;;;;;;;4.24;100.00;99325.79;1720524;82;21090;-71
2022/04/21 04:55:36;;;;;;;16.27;9.53;;;;;;;4.46;100.00;99323.50;1720745;82;21031;-71
2022/04/21 04:58:05;;;;;;;16.73;11.95;;;;;;;4.62;100.00;99322.66;1720624;82;21607;-70
2022/04/21 05:00:33;;;;;;;19.32;11.53;;;;;;;4.68;100.00;99319.91;1714361;82;21075;-69
2022/04/21 05:03:00;;;;;;;18.37;11.33;;;;;;;4.83;100.00;99322.13;1691581;84;21211;-70
2022/04/21 05:05:28;;;;;;;16.93;11.28;;;;;;;5.03;100.00;99315.04;1691681;84;21066;-70
2022/04/21 05:07:55;;;;;;;15.55;11.38;;;;;;;5.33;100.00;99315.54;1691759;84;21048;-70
2022/04/21 05:10:23;;;;;;;14.95;11.18;;;;;;;5.57;100.00;99318.75;1691854;84;21066;-69
2022/04/21 05:12:51;;;;;;;15.43;11.15;;;;;;;5.71;100.00;99317.50;1691980;84;21071;-70
2022/04/21 05:15:20;;;;;;;13.58;9.58;;;;;;;5.74;100.00;99326.08;1692068;83;21527;-71
2022/04/21 05:17:48;;;;;;;14.30;10.58;;;;;;;5.86;100.00;99328.31;1691715;84;21058;-69
2022/04/21 05:20:17;;;;;;;16.48;11.00;;;;;;;5.94;100.00;99332.05;1691933;84;21031;-70
2022/04/21 05:22:47;;;;;;;13.50;10.78;;;;;;;6.09;100.00;99327.63;1692098;84;21168;-72
2022/04/21 05:25:14;;;;;;;13.40;10.28;;;;;;;6.23;100.00;99321.11;1691970;84;21038;-70
2022/04/21 05:27:43;;;;;;;15.50;10.23;;;;;;;6.40;100.00;99329.28;1696483;82;21195;-70
2022/04/21 05:32:59;;;;;;;14.50;11.33;;;;;;;6.53;100.00;99323.17;1696601;84;21135;-70
2022/04/21 05:35:29;;;;;;;16.67;11.08;;;;;;;6.55;100.00;99323.13;1697012;84;21073;-70
2022/04/21 05:37:57;;;;;;;13.93;10.10;;;;;;;6.57;100.00;99321.32;1696896;84;21640;-71
2022/04/21 05:40:25;;;;;;;15.63;11.08;;;;;;;6.57;100.00;99323.94;1697206;84;21249;-70
2022/04/21 05:42:55;;;;;;;18.90;12.40;;;;;;;6.48;100.00;99328.55;1697012;84;21551;-69
2022/04/21 05:45:24;;;;;;;17.92;11.83;;;;;;;6.31;100.00;99323.04;1697287;84;21001;-70
2022/04/21 05:47:53;;;;;;;16.67;11.35;;;;;;;6.30;100.00;99318.27;1696687;84;21085;-70
2022/04/21 05:50:21;;;;;;;15.70;11.65;;;;;;;6.54;100.00;99327.97;1697266;84;21528;-68
2022/04/21 05:52:49;;;;;;;13.38;10.35;;;;;;;6.88;100.00;99324.61;1696886;84;21822;-71
2022/04/21 05:55:17;;;;;;;15.50;10.25;;;;;;;7.25;100.00;99323.30;1696906;84;22151;-70
2022/04/21 05:57:45;;;;;;;16.50;11.03;;;;;;;7.46;97.84;99324.73;1696777;84;21096;-69
2022/04/21 06:00:15;;;;;;;13.78;10.72;;;;;;;7.44;96.97;99330.48;1699585;83;21061;-70
2022/04/21 06:02:43;;;;;;;14.07;9.60;;;;;;;7.40;97.67;99328.88;1725987;82;22189;-71
2022/04/21 06:05:10;;;;;;;13.15;9.45;;;;;;;7.38;96.05;99328.92;1726197;83;21207;-70
2022/04/21 06:07:37;;;;;;;13.30;10.13;;;;;;;7.57;96.96;99321.27;1691140;84;21500;-70
2022/04/21 06:10:07;;;;;;;12.28;9.98;;;;;;;8.18;93.45;99334.59;1661839;86;21025;-71
2022/04/21 06:12:36;;;;;;;12.47;9.75;;;;;;;8.20;91.80;99324.90;1662106;86;21080;-71
2022/04/21 06:15:05;;;;;;;12.37;9.58;;;;;;;8.47;90.88;99329.98;1661989;86;21017;-71
2022/04/21 06:17:32;;;;;;;11.05;9.30;;;;;;;8.73;88.61;99325.41;1661657;86;21105;-71
2022/04/21 06:20:00;;;;;;;11.48;9.15;;;;;;;9.09;87.45;99328.67;1661825;86;21045;-69
2022/04/21 06:22:28;;;;;;;16.80;10.48;;;;;;;9.40;84.88;99328.19;1661769;86;21067;-70
2022/04/21 06:24:56;;;;;;;11.73;9.08;;;;;;;9.56;84.21;99325.72;1661634;86;21087;-70
2022/04/21 06:27:24;;;;;;;13.08;9.20;;;;;;;9.52;85.02;99326.77;1661691;86;21172;-71
2022/04/21 06:29:52;;;;;;;9.60;7.45;;;;;;;9.57;84.94;99333.98;1657444;86;21076;-71
2022/04/21 06:32:20;;;;;;;10.82;7.62;;;;;;;9.60;83.93;99331.23;1720759;82;21058;-71
2022/04/21 06:34:47;;;;;;;11.70;9.18;;;;;;;9.18;84.41;99336.19;1720962;82;21039;-72
2022/04/21 06:37:14;;;;;;;11.60;8.80;;;;;;;8.64;86.60;99336.30;1720673;83;21630;-72
2022/04/21 06:39:42;;;;;;;11.40;8.90;;;;;;;8.35;88.87;99338.30;1720828;82;21055;-70
2022/04/21 06:42:08;;;;;;;12.85;9.55;;;;;;;8.03;90.00;99337.84;1720953;83;21130;-69
2022/04/21 06:50:07;;;;;;;12.40;9.85;;;;;;;7.43;92.19;99346.66;1721154;83;21487;-71
2022/04/21 06:52:34;;;;;;;14.05;9.23;;;;;;;7.50;93.55;99352.08;1720833;83;21023;-69
2022/04/21 06:55:01;;;;;;;18.98;10.65;;;;;;;7.39;91.72;99353.37;1720896;83;21332;-70
2022/04/21 06:57:29;;;;;;;13.55;10.50;;;;;;;7.15;93.55;99348.09;1720646;82;21149;-73
2022/04/21 06:59:56;;;;;;;13.60;10.82;;;;;;;7.04;95.42;99347.18;1720957;83;21699;-70
2022/04/21 07:02:31;;;;;;;18.10;11.63;;;;;;;7.04;95.47;99352.84;1720922;83;21583;-71
2022/04/21 07:05:13;;;;;;;16.70;11.70;;;;;;;7.03;97.13;99353.77;1720932;82;21070;-70
2022/04/21 07:07:39;;;;;;;16.93;11.63;;;;;;;7.22;94.50;99359.20;1719411;83;21522;-71
2022/04/21 07:10:09;;;;;;;15.08;10.65;;;;;;;7.49;92.95;99362.59;1720555;82;21044;-70
2022/04/21 07:12:37;;;;;;;14.93;11.40;;;;;;;7.57;92.70;99368.42;1720786;82;21024;-71
2022/04/21 07:15:08;;;;;;;17.00;11.63;;;;;;;7.76;91.81;99365.50;1720877;82;22147;-69
2022/04/21 07:17:36;;;;;;;17.52;11.68;;;;;;;7.87;92.67;99364.27;1721170;82;21046;-71
2022/04/21 07:20:06;;;;;;;15.98;10.95;;;;;;;7.98;90.78;99362.05;1721106;82;21039;-73
2022/04/21 07:22:34;;;;;;;17.75;11.78;;;;;;;8.42;89.77;99360.81;1721160;83;21046;-71
2022/04/21 07:25:09;;;;;;;14.90;11.53;;;;;;;8.77;86.73;99362.44;1720895;82;21523;-70
2022/04/21 07:27:37;;;;;;;17.00;11.40;;;;;;;9.04;84.08;99360.39;1721027;82;21087;-71
2022/04/21 07:30:08;;;;;;;16.40;11.88;;;;;;;9.19;84.42;99369.41;1714589;82;22177;-70
2022/04/21 07:32:35;;;;;;;15.85;11.60;;;;;;;9.11;83.99;99364.92;1714592;83;21126;-70
2022/04/21 07:35:05;;;;;;;14.43;10.10;;;;;;;9.03;83.26;99365.27;1714908;83;21343;-72
2022/04/21 07:37:33;;;;;;;13.40;10.90;;;;;;;8.82;84.94;99372.28;1715437;83;21026;-71
2022/04/21 07:40:01;;;;;;;17.10;13.08;;;;;;;8.78;86.04;99373.32;1715542;83;21021;-71
2022/04/21 07:42:28;;;;;;;16.55;12.70;;;;;;;8.60;85.63;99374.50;1714562;83;22248;-73
2022/04/21 07:44:54;;;;;;;15.23;11.28;;;;;;;8.39;86.53;99390.59;1713572;83;21139;-73
2022/04/21 07:47:21;;;;;;;17.37;12.25;;;;;;;8.32;87.34;99385.66;1702888;83;21495;-71
2022/04/21 07:49:48;;;;;;;13.98;10.58;;;;;;;8.28;87.62;99382.75;1713590;82;21537;-70
2022/04/21 07:55:19;;;;;;;16.50;12.60;;;;;;;8.24;86.61;99382.04;1713553;83;21089;-70
2022/04/21 07:57:47;;;;;;;15.75;12.05;;;;;;;8.20;86.31;99386.53;1713210;82;20986;-71
2022/04/21 08:00:16;;;;;;;19.48;12.65;;;;;;;8.13;87.10;99396.02;1713106;83;21542;-71
2022/04/21 08:02:44;;;;;;;18.70;12.90;;;;;;;8.08;87.62;99398.83;1713204;83;21042;-69
2022/04/21 08:05:13;;;;;;;18.12;12.70;;;;;;;8.00;87.99;99407.42;1713073;83;21113;-71
2022/04/21 08:07:42;;;;;;;17.02;12.15;;;;;;;7.77;88.63;99406.98;1713097;83;21100;-70
2022/04/21 08:10:11;;;;;;;16.85;11.63;;;;;;;7.54;90.35;99399.95;1713487;83;21223;-71
2022/04/21 08:12:43;;;;;;;17.37;12.68;;;;;;;7.41;90.49;99410.47;1713322;82;21058;-72
2022/04/21 08:15:14;;;;;;;17.90;12.43;;;;;;;7.25;91.36;99414.96;1702963;83;21058;-71
2022/04/21 08:17:41;;;;;;;17.87;11.85;;;;;;;7.09;92.51;99413.78;1712624;82;21189;-71
2022/04/21 08:20:09;;;;;;;20.00;14.93;;;;;;;6.96;93.86;99417.72;1712915;83;21097;-70
2022/04/21 08:22:37;;;;;;;20.85;14.68;;;;;;;6.87;95.18;99413.64;1713190;82;21659;-70
2022/04/21 08:33:25;;;;;;;19.82;13.68;;;;;;;6.78;95.99;99420.48;1713068;83;21067;-70
2022/04/21 08:35:58;;;;;;;20.43;13.45;;;;;;;6.77;96.21;99425.33;1713202;83;21063;-70
2022/04/21 08:38:22;;;;;;;18.67;13.13;;;;;;;6.71;96.53;99418.52;1713198;83;21082;-70
2022/04/21 08:40:55;;;;;;;18.07;13.48;;;;;;;6.67;97.03;99423.02;1713247;83;21071;-71
2022/04/21 08:43:23;;;;;;;20.00;12.55;;;;;;;6.58;97.38;99427.66;1713042;83;21582;-70
2022/04/21 08:45:51;;;;;;;19.17;13.95;;;;;;;6.64;97.67;99425.70;1713216;83;21554;-69
2022/04/21 08:48:20;;;;;;;20.32;14.55;;;;;;;6.61;97.70;99436.28;1713236;83;21098;-70
2022/04/21 08:50:46;;;;;;;19.20;14.03;;;;;;;6.65;98.23;99434.44;1713198;82;21103;-71
2022/04/21 08:53:19;;;;;;;21.10;15.15;;;;;;;6.64;98.46;99430.09;1713428;83;21093;-68
2022/04/21 08:55:48;;;;;;;20.48;13.88;;;;;;;6.69;98.81;99434.72;1713414;82;21079;-71
2022/04/21 08:58:14;;;;;;;21.97;15.20;;;;;;;6.77;99.00;99434.03;1713323;83;21071;-70
2022/04/21 09:00:43;;;;;;;22.95;15.32;;;;;;;6.90;98.22;99447.13;1713104;83;21238;-69
2022/04/21 09:03:12;;;;;;;19.35;14.05;;;;;;;6.88;97.97;99431.92;1687177;83;21069;-69
2022/04/21 09:05:39;;;;;;;23.77;15.15;;;;;;;6.87;98.41;99436.73;1713150;83;21018;-69
2022/04/21 09:08:22;;;;;;;19.95;14.13;;;;;;;6.89;99.42;99438.00;1713150;83;21026;-70
2022/04/21 09:11:06;;;;;;;21.85;15.32;;;;;;;6.87;99.25;99441.12;1690394;83;21089;-70
2022/04/21 09:13:44;;;;;;;21.65;14.30;;;;;;;6.83;99.06;99443.00;1713298;83;21589;-71
2022/04/21 09:16:12;;;;;;;21.30;14.73;;;;;;;6.81;98.98;99446.12;1712964;82;21042;-71
2022/04/21 09:18:43;;;;;;;23.65;14.90;;;;;;;6.77;99.32;99444.95;1712922;82;21062;-71
2022/04/21 09:21:14;;;;;;;23.05;15.63;;;;;;;6.83;99.78;99441.69;1712962;83;21101;-71
2022/04/21 09:23:44;;;;;;;21.25;13.85;;;;;;;6.92;100.00;99442.70;1712890;82;21286;-71
2022/04/21 09:26:20;;;;;;;20.80;13.65;;;;;;;7.10;99.64;99441.66;1713231;83;21261;-71
2022/04/21 09:28:55;;;;;;;28.15;16.30;;;;;;;7.12;98.77;99445.09;1713046;82;21046;-72
2022/04/21 09:31:27;;;;;;;25.65;15.43;;;;;;;7.14;99.22;99440.66;1713149;82;21046;-71
2022/04/21 09:33:55;;;;;;;16.67;12.58;;;;;;;7.14;98.16;99445.44;1713106;82;21067;-71
2022/04/21 09:36:23;;;;;;;26.95;14.90;;;;;;;7.02;98.17;99443.70;1686674;83;21034;-70
2022/04/21 09:39:03;;;;;;;20.60;13.83;;;;;;;6.94;98.72;99441.31;1713093;83;21880;-72
2022/04/21 09:41:30;;;;;;;20.88;14.18;;;;;;;6.89;99.11;99446.70;1713374;83;21026;-71
2022/04/21 09:46:07;;;;;;;19.48;13.08;;;;;;;6.91;99.35;99450.13;1713076;82;22104;-70
2022/04/21 09:46:36;;;;;;;20.45;12.50;;;;;;;6.85;99.72;99441.16;1711523;83;21492;-71
2022/04/21 09:49:03;;;;;;;19.35;12.45;;;;;;;6.76;100.00;99450.62;1712952;82;21558;-71
2022/04/21 09:51:31;;;;;;;20.05;13.45;;;;;;;6.73;100.00;99445.49;1712999;83;21173;-71
2022/04/21 09:54:01;;;;;;;20.60;11.60;;;;;;;6.88;100.00;99452.86;1663437;83;21410;-71
2022/04/21 09:56:41;;;;;;;16.02;11.22;;;;;;;6.74;100.00;99460.31;1713519;82;21093;-72
2022/04/21 09:59:12;;;;;;;16.97;12.20;;;;;;;6.62;100.00;99458.06;1713186;82;21062;-71
2022/04/21 10:01:42;;;;;;;15.85;11.25;;;;;;;6.49;100.00;99458.45;1713255;82;20994;-70
2022/04/21 10:04:11;;;;;;;15.78;11.10;;;;;;;6.49;100.00;99457.15;1712948;83;21217;-71
2022/04/21 10:06:38;;;;;;;17.23;12.07;;;;;;;6.53;100.00;99463.58;1713295;83;21086;-71
2022/04/21 10:09:06;;;;;;;19.05;13.38;;;;;;;6.58;100.00;99469.52;1712909;83;21026;-71
2022/04/21 10:11:38;;;;;;;17.05;11.38;;;;;;;6.65;100.00;99468.45;1713151;82;21038;-72
2022/04/21 10:14:15;;;;;;;19.40;12.58;;;;;;;6.75;100.00;99472.47;1713245;83;21016;-72
2022/04/21 10:16:42;;;;;;;17.65;11.48;;;;;;;6.84;100.00;99485.27;1712736;82;21066;-70
2022/04/21 10:19:09;;;;;;;17.92;12.05;;;;;;;6.95;98.35;99479.70;1712917;83;21106;-71
2022/04/21 10:21:55;;;;;;;17.60;11.35;;;;;;;7.02;98.20;99477.73;1712898;83;21969;-71
2022/04/21 10:24:27;;;;;;;18.37;11.35;;;;;;;7.09;97.81;99474.00;1712981;82;21031;-70
2022/04/21 10:26:56;;;;;;;16.37;11.12;;;;;;;7.10;97.30;99480.94;1702808;83;21171;-71
2022/04/21 10:29:27;;;;;;;15.63;11.50;;;;;;;7.13;97.13;99479.52;1714909;82;21049;-73
2022/04/21 10:32:03;;;;;;;17.02;10.85;;;;;;;7.20;97.12;99482.36;1725825;83;21087;-71
2022/04/21 10:34:38;;;;;;;16.10;10.65;;;;;;;7.38;96.77;99487.87;1725536;83;21079;-72
2022/04/21 10:37:15;;;;;;;13.70;9.03;;;;;;;7.55;95.22;99489.00;1725702;83;21083;-72
2022/04/21 10:40:03;;;;;;;13.22;9.23;;;;;;;7.58;93.35;99501.14;1725811;83;21637;-72
2022/04/21 10:42:55;;;;;;;13.10;8.20;;;;;;;7.51;92.42;99495.71;1725718;83;21032;-72
2022/04/21 10:45:26;;;;;;;12.73;9.60;;;;;;;7.34;93.23;99497.61;1725903;83;21011;-71
2022/04/21 10:48:08;;;;;;;13.85;9.05;;;;;;;7.28;93.59;99497.81;1725748;82;21066;-70
2022/04/21 10:50:37;;;;;;;13.30;9.43;;;;;;;7.27;94.11;99508.75;1726075;83;21074;-71
2022/04/21 10:58:47;;;;;;;18.27;9.60;;;;;;;7.06;96.83;99504.20;1725827;82;21048;-71
2022/04/21 11:01:28;;;;;;;16.10;10.50;;;;;;;6.89;98.47;99513.45;1725584;82;21536;-70
2022/04/21 11:04:12;;;;;;;15.40;10.63;;;;;;;6.84;99.13;99514.05;1725771;82;21081;-71
2022/04/21 11:06:54;;;;;;;15.03;9.60;;;;;;;6.85;99.58;99508.36;1725600;82;21114;-72
2022/04/21 11:09:40;;;;;;;15.25;10.13;;;;;;;6.90;98.27;99515.18;1726252;83;21123;-71
2022/04/21 11:12:11;;;;;;;12.13;8.33;;;;;;;6.99;97.73;99515.77;1725950;82;21023;-72
2022/04/21 11:14:39;;;;;;;11.90;9.10;;;;;;;7.09;96.31;99517.20;1726152;82;25665;-70
2022/04/21 11:17:10;;;;;;;12.10;8.63;;;;;;;7.13;95.00;99517.48;1726162;83;21137;-71
2022/04/21 11:19:44;;;;;;;13.15;8.35;;;;;;;7.12;95.40;99517.95;1725570;82;20988;-71
2022/04/21 11:22:12;;;;;;;12.33;8.40;;;;;;;7.14;95.69;99520.06;1726268;82;21107;-72
2022/04/21 11:25:01;;;;;;;12.03;7.92;;;;;;;7.16;95.46;99517.41;1726039;82;21094;-70
2022/04/21 11:27:31;;;;;;;11.33;7.90;;;;;;;7.19;96.15;99522.53;1726021;82;21082;-70
2022/04/21 11:30:00;;;;;;;12.10;7.70;;;;;;;7.29;95.64;99525.27;1724319;82;21075;-72
2022/04/21 11:32:26;;;;;;;8.65;6.80;;;;;;;7.37;94.93;99515.83;1695830;83;21554;-73
2022/04/21 11:35:02;;;;;;;10.72;7.97;;;;;;;7.45;94.44;99518.19;1692031;84;21743;-70
2022/04/21 11:37:45;;;;;;;10.53;7.35;;;;;;;7.44;93.48;99519.11;1691979;84;21083;-71
2022/04/21 11:40:37;;;;;;;9.63;6.72;;;;;;;7.40;93.84;99522.73;1655047;86;21029;-70
2022/04/21 11:43:17;;;;;;;9.63;7.10;;;;;;;7.41;94.36;99525.73;1658196;86;21048;-70
2022/04/21 11:45:57;;;;;;;11.17;8.33;;;;;;;7.40;93.45;99528.81;1692350;84;21098;-72
2022/04/21 11:48:30;;;;;;;9.80;6.97;;;;;;;7.39;94.30;99528.89;1691896;84;21083;-70
2022/04/21 11:50:56;;;;;;;9.55;7.00;;;;;;;7.32;93.78;99530.86;1691965;84;21577;-70
2022/04/21 11:53:23;;;;;;;10.13;7.83;;;;;;;7.21;94.28;99532.51;1692577;84;21499;-72
2022/04/21 11:55:51;;;;;;;8.98;6.55;;;;;;;7.18;95.27;99531.31;1692091;84;21261;-70
2022/04/21 11:58:34;;;;;;;8.05;6.15;;;;;;;7.14;94.85;99537.09;1691943;84;21145;-71
2022/04/21 12:06:51;;;;;;;9.18;5.87;;;;;;;6.92;95.77;99536.05;1692142;84;21039;-72
2022/04/21 12:09:20;;;;;;;6.20;4.87;;;;;;;6.90;96.04;99542.67;1657498;86;21061;-71
2022/04/21 12:11:53;;;;;;;7.60;5.62;;;;;;;6.87;96.15;99544.05;1692052;84;21571;-71
2022/04/21 12:14:19;;;;;;;;;;;;;;;6.92;96.05;99536.94;1694257;84;21126;-71
2022/04/21 12:16:52;;;;;;;6.58;4.80;;;;;;;6.90;95.61;99545.28;1691777;84;20183;-71
2022/04/21 12:19:46;;;;;;;6.17;4.55;;;;;;;6.79;95.69;99548.69;1691763;84;21250;-71
2022/04/21 12:22:18;;;;;;;7.03;5.22;;;;;;;6.76;96.65;99540.91;1691889;84;21071;-70
2022/04/21 12:24:54;;;;;;;9.18;5.58;;;;;;;6.76;97.35;99542.21;1691862;84;21062;-70
2022/04/21 12:27:29;;;;;;;6.70;4.85;;;;;;;6.87;97.17;99545.36;1691768;84;21200;-70
2022/04/21 12:30:01;;;;;;;6.22;5.40;;;;;;;6.84;96.09;99547.23;1694494;82;21133;-71